Time;durP1;ratioP1;P1;durP2;ratioP2;P2;SDS_P1;SDS_P2;PMS_P1;PMS_P2;Temp;Humidity;BMP_temperature;BMP_pressure;BME280_temperature;BME280_humidity;BME280_pressure;Samples;Min_cycle;Max_cycle;Signal;HPM_P1;HPM_P2
2022/03/21 00:01:55;;;;;;;21.27;14.07;;;10.60;99.90;;;;;;6309922;22;19999;-88
2022/03/21 00:04:21;;;;;;;23.65;14.27;;;10.60;99.90;;;;;;6309890;22;20056;-88
2022/03/21 00:06:47;;;;;;;22.60;14.77;;;10.60;99.90;;;;;;6309128;22;20339;-89
2022/03/21 00:09:13;;;;;;;22.77;14.20;;;10.60;99.90;;;;;;6309038;22;20038;-88
2022/03/21 00:11:39;;;;;;;22.98;14.77;;;10.50;99.90;;;;;;6309219;22;20083;-90
2022/03/21 00:14:05;;;;;;;23.40;14.05;;;10.50;99.90;;;;;;6309642;22;20022;-89
2022/03/21 00:16:31;;;;;;;21.27;13.63;;;10.50;99.90;;;;;;6310222;22;20018;-89
2022/03/21 00:18:56;;;;;;;23.73;14.45;;;10.50;99.90;;;;;;6309151;22;20006;-90
2022/03/21 00:21:22;;;;;;;28.45;14.77;;;10.40;99.90;;;;;;6310477;22;20002;-90
2022/03/21 00:23:48;;;;;;;22.00;13.88;;;10.40;99.90;;;;;;6309231;22;20444;-89
2022/03/21 00:26:15;;;;;;;24.60;14.50;;;10.40;99.90;;;;;;6331784;22;19999;-89
2022/03/21 00:28:41;;;;;;;25.20;14.05;;;10.40;99.90;;;;;;6308018;22;20011;-89
2022/03/21 00:31:07;;;;;;;24.73;14.40;;;10.40;99.90;;;;;;6346915;22;19998;-90
2022/03/21 00:33:33;;;;;;;26.67;14.52;;;10.40;99.90;;;;;;6312963;22;20003;-90
2022/03/21 00:35:59;;;;;;;21.70;14.23;;;10.40;99.90;;;;;;6310158;22;20003;-89
2022/03/21 00:38:26;;;;;;;25.15;14.77;;;10.40;99.90;;;;;;6309299;22;20002;-88
2022/03/21 00:40:52;;;;;;;21.63;14.38;;;10.50;99.90;;;;;;6309662;22;20014;-89
2022/03/21 00:43:24;;;;;;;21.10;13.68;;;10.50;99.90;;;;;;6309526;22;20011;-89
2022/03/21 00:45:52;;;;;;;22.50;13.80;;;10.50;99.90;;;;;;6310464;22;20026;-88
2022/03/21 00:48:18;;;;;;;22.27;14.45;;;10.50;99.90;;;;;;6310618;22;20014;-89
2022/03/21 00:50:44;;;;;;;24.75;14.38;;;10.60;99.90;;;;;;6312325;22;20040;-88
2022/03/21 00:53:10;;;;;;;23.33;14.48;;;10.50;99.90;;;;;;6311016;22;20011;-90
2022/03/21 00:55:37;;;;;;;25.42;14.70;;;10.50;99.90;;;;;;6311819;22;19999;-89
2022/03/21 00:58:03;;;;;;;20.15;14.13;;;10.50;99.90;;;;;;6310147;22;20090;-89
2022/03/21 01:00:31;;;;;;;25.55;14.60;;;10.50;99.90;;;;;;6309438;22;20006;-88
2022/03/21 01:02:58;;;;;;;23.13;13.90;;;10.50;99.90;;;;;;6308974;22;20010;-89
2022/03/21 01:05:25;;;;;;;22.13;13.13;;;10.50;99.90;;;;;;6309430;22;20086;-89
2022/03/21 01:07:51;;;;;;;28.08;15.40;;;10.50;99.90;;;;;;6309029;22;20010;-89
2022/03/21 01:10:18;;;;;;;25.70;13.70;;;10.50;99.90;;;;;;6309821;22;20006;-89
2022/03/21 01:12:45;;;;;;;23.27;13.80;;;10.50;99.90;;;;;;6309125;22;20003;-87
2022/03/21 01:15:14;;;;;;;20.48;13.52;;;10.50;99.90;;;;;;6308610;22;20034;-88
2022/03/21 01:17:42;;;;;;;23.65;14.20;;;10.50;99.90;;;;;;6311010;22;20082;-88
2022/03/21 01:20:09;;;;;;;24.27;14.68;;;10.50;99.90;;;;;;6309586;22;20003;-88
2022/03/21 01:22:34;;;;;;;22.67;12.82;;;10.60;99.90;;;;;;6309443;22;20029;-89
2022/03/21 01:25:00;;;;;;;24.10;14.32;;;10.60;99.90;;;;;;6309443;22;20529;-89
2022/03/21 01:27:26;;;;;;;23.40;14.30;;;10.60;99.90;;;;;;6308652;22;20003;-89
2022/03/21 01:29:52;;;;;;;24.98;14.80;;;10.60;99.90;;;;;;6308410;22;20007;-89
2022/03/21 01:32:18;;;;;;;22.98;14.02;;;10.60;99.90;;;;;;6308528;22;20054;-88
2022/03/21 01:34:43;;;;;;;24.92;14.95;;;10.60;99.90;;;;;;6308788;22;20015;-88
2022/03/21 01:37:09;;;;;;;24.45;15.07;;;10.60;99.90;;;;;;6308371;22;20010;-89
2022/03/21 01:39:35;;;;;;;22.23;14.77;;;10.60;99.90;;;;;;6309369;22;20002;-88
2022/03/21 01:42:01;;;;;;;24.20;14.18;;;10.60;99.90;;;;;;6308265;22;20003;-88
2022/03/21 01:44:26;;;;;;;24.00;14.90;;;10.60;99.90;;;;;;6308648;22;20006;-89
2022/03/21 01:46:52;;;;;;;28.42;15.35;;;10.60;99.90;;;;;;6308572;22;20002;-89
2022/03/21 01:49:18;;;;;;;24.60;15.13;;;10.60;99.90;;;;;;6308371;22;20037;-89
2022/03/21 01:51:44;;;;;;;22.15;14.68;;;10.60;99.90;;;;;;6308164;22;20438;-88
2022/03/21 01:56:56;;;;;;;23.17;14.85;;;10.60;99.90;;;;;;6336119;22;20010;-89
2022/03/21 01:59:22;;;;;;;23.33;14.48;;;10.60;99.90;;;;;;6311982;22;20003;-90
2022/03/21 02:01:49;;;;;;;23.98;15.10;;;10.50;99.90;;;;;;6310039;22;20087;-91
2022/03/21 02:04:14;;;;;;;22.80;14.55;;;10.50;99.90;;;;;;6313435;22;20038;-89
2022/03/21 02:06:45;;;;;;;23.30;14.45;;;10.50;99.90;;;;;;6315120;22;20002;-88
2022/03/21 02:09:11;;;;;;;141.40;58.15;;;10.50;99.90;;;;;;6312620;22;20549;-90
2022/03/21 02:11:37;;;;;;;22.38;14.23;;;10.50;99.90;;;;;;6310826;22;19999;-91
2022/03/21 02:14:06;;;;;;;199.05;81.20;;;10.50;99.90;;;;;;6339274;22;20003;-93
2022/03/21 02:16:34;;;;;;;26.10;14.48;;;10.50;99.90;;;;;;6309172;22;20003;-91
2022/03/21 02:19:06;;;;;;;22.88;14.45;;;10.40;99.90;;;;;;6309511;22;19999;-90
2022/03/21 02:21:48;;;;;;;22.45;15.05;;;10.40;99.90;;;;;;6308889;22;20006;-90
2022/03/21 02:24:49;;;;;;;37.60;17.65;;;10.40;99.90;;;;;;6307977;22;20042;-87
2022/03/21 02:27:17;;;;;;;52.67;20.48;;;10.30;99.90;;;;;;6302827;22;20326;-91
2022/03/21 02:29:47;;;;;;;22.00;14.68;;;10.30;99.90;;;;;;6309682;22;20458;-92
2022/03/21 02:32:13;;;;;;;26.85;14.93;;;10.10;99.90;;;;;;6312037;22;19999;-89
2022/03/21 02:34:40;;;;;;;21.58;13.95;;;10.00;99.90;;;;;;6309608;22;20003;-94
2022/03/21 02:37:10;;;;;;;25.40;14.38;;;9.90;99.90;;;;;;6308431;22;20009;-88
2022/03/21 02:39:37;;;;;;;23.75;13.75;;;9.80;99.90;;;;;;6307650;22;20083;-88
2022/03/21 02:42:04;;;;;;;19.90;13.60;;;9.70;99.90;;;;;;6307705;22;20139;-89
2022/03/21 02:44:34;;;;;;;22.33;15.05;;;9.70;99.90;;;;;;6335627;22;20006;-90
2022/03/21 02:47:00;;;;;;;21.70;14.10;;;9.60;99.90;;;;;;6307715;22;20003;-88
2022/03/21 02:49:26;;;;;;;19.60;13.60;;;9.50;99.90;;;;;;6308175;22;20403;-88
2022/03/21 02:51:53;;;;;;;22.75;14.52;;;9.50;99.90;;;;;;6307764;22;20003;-88
2022/03/21 02:54:21;;;;;;;23.65;14.93;;;9.40;99.90;;;;;;6307316;22;20010;-90
2022/03/21 02:56:46;;;;;;;19.75;13.82;;;9.40;99.90;;;;;;6325768;22;20006;-88
2022/03/21 02:59:12;;;;;;;21.17;13.95;;;9.30;99.90;;;;;;6356368;22;19999;-89
2022/03/21 03:01:38;;;;;;;22.25;14.30;;;9.20;99.90;;;;;;6329240;22;19999;-88
2022/03/21 03:04:04;;;;;;;19.17;13.95;;;9.30;99.90;;;;;;6339694;22;20083;-93
2022/03/21 03:06:39;;;;;;;23.27;14.18;;;9.30;99.90;;;;;;6310419;22;20003;-93
2022/03/21 03:09:08;;;;;;;21.65;13.73;;;9.20;99.90;;;;;;6311905;22;20439;-91
2022/03/21 03:11:38;;;;;;;23.92;13.68;;;9.20;99.90;;;;;;6310186;22;20030;-89
2022/03/21 03:14:04;;;;;;;18.40;13.15;;;9.20;99.90;;;;;;6309153;22;20698;-87
2022/03/21 03:16:30;;;;;;;20.48;13.20;;;9.10;99.90;;;;;;6308974;22;19999;-89
2022/03/21 03:18:56;;;;;;;21.60;13.65;;;9.10;99.90;;;;;;6307704;22;20010;-89
2022/03/21 03:21:25;;;;;;;21.92;13.13;;;9.10;99.90;;;;;;6307452;22;20007;-88
2022/03/21 03:23:51;;;;;;;21.55;12.90;;;9.00;99.90;;;;;;6308005;22;20015;-89
2022/03/21 03:26:17;;;;;;;18.00;13.00;;;9.00;99.90;;;;;;6309826;22;20002;-91
2022/03/21 03:28:44;;;;;;;21.10;13.38;;;9.00;99.90;;;;;;6338275;22;20099;-89
2022/03/21 03:31:12;;;;;;;19.25;13.18;;;9.00;99.90;;;;;;6313683;22;20002;-90
2022/03/21 03:33:38;;;;;;;19.38;13.05;;;8.90;99.90;;;;;;6313798;22;20068;-92
2022/03/21 03:36:04;;;;;;;21.98;13.52;;;8.90;99.90;;;;;;6316359;22;20033;-90
2022/03/21 03:38:30;;;;;;;17.80;12.30;;;8.80;99.90;;;;;;6313047;22;20010;-90
2022/03/21 03:40:56;;;;;;;22.10;13.43;;;8.80;99.90;;;;;;6310103;22;20007;-90
2022/03/21 03:43:23;;;;;;;18.55;12.73;;;8.80;99.90;;;;;;6309901;22;20010;-91
2022/03/21 03:45:52;;;;;;;20.50;12.57;;;8.80;99.90;;;;;;6309667;22;19998;-92
2022/03/21 03:48:20;;;;;;;21.77;12.85;;;8.80;99.90;;;;;;6310140;22;20085;-91
2022/03/21 03:50:46;;;;;;;20.08;11.60;;;8.80;99.90;;;;;;6310322;22;20049;-92
2022/03/21 03:53:12;;;;;;;48.72;18.20;;;8.70;99.90;;;;;;6310479;22;20017;-90
2022/03/21 03:55:38;;;;;;;111.50;32.65;;;8.70;99.90;;;;;;6309752;22;20034;-90
2022/03/21 03:58:04;;;;;;;16.38;10.88;;;8.60;99.90;;;;;;6309272;22;20003;-89
2022/03/21 04:00:29;;;;;;;18.52;11.75;;;8.60;99.90;;;;;;6309501;22;20010;-90
2022/03/21 04:05:39;;;;;;;18.00;10.82;;;8.60;99.90;;;;;;6337164;22;20465;-91
2022/03/21 04:08:06;;;;;;;19.05;10.43;;;8.60;99.90;;;;;;6310112;22;20026;-90
2022/03/21 04:10:32;;;;;;;21.33;11.10;;;8.60;99.90;;;;;;6309789;22;20002;-90
2022/03/21 04:12:58;;;;;;;16.67;10.90;;;8.50;99.90;;;;;;6309761;22;19999;-92
2022/03/21 04:15:24;;;;;;;14.95;10.13;;;8.50;99.90;;;;;;6309283;22;20098;-88
2022/03/21 04:18:01;;;;;;;34.00;14.18;;;8.40;99.90;;;;;;6310275;22;19999;-92
2022/03/21 04:20:29;;;;;;;15.05;9.98;;;8.40;99.90;;;;;;6309575;22;20083;-89
2022/03/21 04:22:55;;;;;;;17.45;10.63;;;8.40;99.90;;;;;;6309742;22;20019;-92
2022/03/21 04:25:21;;;;;;;74.22;24.00;;;8.40;99.90;;;;;;6309277;22;20070;-91
2022/03/21 04:27:47;;;;;;;179.25;66.05;;;8.40;99.90;;;;;;6310131;22;20013;-91
2022/03/21 04:30:13;;;;;;;21.85;11.55;;;8.40;99.90;;;;;;6309678;22;20035;-88
2022/03/21 04:32:39;;;;;;;14.73;9.15;;;8.40;99.90;;;;;;6309308;22;20010;-89
2022/03/21 04:35:06;;;;;;;78.70;28.20;;;8.40;99.90;;;;;;6309129;22;20003;-89
2022/03/21 04:37:31;;;;;;;19.08;10.48;;;8.40;99.90;;;;;;6309588;22;20014;-89
2022/03/21 04:39:58;;;;;;;18.67;9.80;;;8.30;99.90;;;;;;6309215;22;20003;-89
2022/03/21 04:42:24;;;;;;;15.13;9.00;;;8.30;99.90;;;;;;6308636;22;20093;-89
2022/03/21 04:44:50;;;;;;;17.55;9.30;;;8.40;99.90;;;;;;6309965;22;20015;-89
2022/03/21 04:47:20;;;;;;;12.90;8.85;;;8.40;99.90;;;;;;6311953;22;20009;-90
2022/03/21 04:49:48;;;;;;;38.72;12.70;;;;;;;;;;6310300;22;20009;-92
2022/03/21 04:52:14;;;;;;;30.45;10.82;;;8.40;99.90;;;;;;6309764;22;20024;-91
2022/03/21 04:54:40;;;;;;;84.80;29.97;;;8.40;99.90;;;;;;6309278;22;20502;-90
2022/03/21 04:57:08;;;;;;;12.98;8.63;;;8.40;99.90;;;;;;6308180;22;20351;-91
2022/03/21 04:59:40;;;;;;;13.52;8.88;;;8.40;99.90;;;;;;6309090;22;20003;-90
2022/03/21 05:02:11;;;;;;;12.40;8.50;;;;;;;;;;6308443;22;20055;-93
2022/03/21 05:04:37;;;;;;;13.93;8.82;;;;;;;;;;6336575;22;20037;-89
2022/03/21 05:07:16;;;;;;;14.63;8.25;;;8.30;99.90;;;;;;6309233;22;20335;-91
2022/03/21 05:09:45;;;;;;;14.88;8.55;;;8.30;99.90;;;;;;6308696;22;20026;-90
2022/03/21 05:12:15;;;;;;;13.05;8.25;;;8.30;99.90;;;;;;6308625;22;20007;-90
2022/03/21 05:14:42;;;;;;;31.75;12.20;;;;;;;;;;6308885;22;20022;-89
2022/03/21 05:17:12;;;;;;;9.60;7.88;;;8.30;99.90;;;;;;6300879;22;20027;-90
2022/03/21 05:19:39;;;;;;;13.15;8.18;;;8.30;99.90;;;;;;6308594;22;20038;-89
2022/03/21 05:22:06;;;;;;;11.38;7.70;;;8.20;99.90;;;;;;6308823;22;20078;-91
2022/03/21 05:35:52;;;;;;;10.85;7.57;;;8.20;99.90;;;;;;6357520;22;20014;-90
2022/03/21 05:38:18;;;;;;;12.27;7.90;;;8.20;99.90;;;;;;6349557;22;20025;-88
2022/03/21 05:40:44;;;;;;;11.55;7.95;;;;;;;;;;6311330;22;20339;-89
2022/03/21 05:43:10;;;;;;;12.88;7.60;;;;;;;;;;6313278;22;20007;-91
2022/03/21 05:45:35;;;;;;;9.70;7.55;;;8.20;99.90;;;;;;6318013;22;19999;-88
2022/03/21 05:50:49;;;;;;;11.27;7.72;;;8.20;99.90;;;;;;6344326;22;20009;-89
2022/03/21 05:53:21;;;;;;;11.20;7.57;;;8.20;99.90;;;;;;6351592;22;20014;-88
2022/03/21 05:55:47;;;;;;;10.93;7.72;;;8.20;99.90;;;;;;6328887;22;20003;-89
2022/03/21 05:58:13;;;;;;;10.65;7.10;;;8.20;99.90;;;;;;6323276;22;20011;-91
2022/03/21 06:00:39;;;;;;;11.50;7.50;;;8.10;99.90;;;;;;6318487;22;20021;-92
2022/03/21 06:03:08;;;;;;;12.50;7.07;;;8.10;99.90;;;;;;6344713;22;20007;-94
2022/03/21 06:05:36;;;;;;;13.00;7.82;;;8.20;99.90;;;;;;6309873;22;20003;-92
2022/03/21 06:08:08;;;;;;;9.35;6.88;;;8.20;99.90;;;;;;6309691;22;20056;-92
2022/03/21 06:10:36;;;;;;;9.02;6.80;;;8.20;99.90;;;;;;6310321;22;20078;-90
2022/03/21 06:13:05;;;;;;;9.47;6.90;;;8.30;99.90;;;;;;6309800;22;20011;-90
2022/03/21 06:15:36;;;;;;;10.40;7.05;;;8.40;99.90;;;;;;6309444;22;20010;-88
2022/03/21 06:18:08;;;;;;;9.38;6.95;;;8.50;99.90;;;;;;6309538;22;20320;-90
2022/03/21 06:20:34;;;;;;;11.20;6.70;;;8.50;99.90;;;;;;6308693;22;20003;-89
2022/03/21 06:22:59;;;;;;;10.85;7.10;;;8.60;99.90;;;;;;6307935;22;20098;-88
2022/03/21 06:25:25;;;;;;;11.57;7.03;;;8.70;99.90;;;;;;6308071;22;20003;-90
2022/03/21 06:27:51;;;;;;;11.00;7.25;;;8.80;99.90;;;;;;6308933;22;20026;-91
2022/03/21 06:30:17;;;;;;;10.95;7.00;;;8.80;99.90;;;;;;6307714;22;20435;-89
2022/03/21 06:32:42;;;;;;;9.57;6.68;;;8.90;99.90;;;;;;6308050;22;19998;-91
2022/03/21 06:35:11;;;;;;;11.95;7.07;;;9.00;99.90;;;;;;6307766;22;20115;-90
2022/03/21 06:37:38;;;;;;;8.85;6.90;;;9.00;99.90;;;;;;6308105;22;20009;-90
2022/03/21 06:40:05;;;;;;;10.05;7.22;;;9.10;99.90;;;;;;6308257;22;20381;-90
2022/03/21 06:42:31;;;;;;;10.93;6.70;;;9.10;99.90;;;;;;6307428;22;20461;-90
2022/03/21 06:44:56;;;;;;;9.20;6.38;;;9.20;99.90;;;;;;6308020;22;20495;-91
2022/03/21 06:47:22;;;;;;;12.00;6.07;;;9.20;99.90;;;;;;6308730;22;20003;-90
2022/03/21 06:49:48;;;;;;;9.55;5.93;;;9.20;99.90;;;;;;6308021;22;20013;-88
2022/03/21 06:52:18;;;;;;;9.38;6.45;;;9.30;99.90;;;;;;6308522;22;19998;-90
2022/03/21 06:54:45;;;;;;;11.10;6.32;;;9.20;99.90;;;;;;6308528;22;20359;-89
2022/03/21 06:57:11;;;;;;;9.75;6.07;;;9.10;99.90;;;;;;6308564;22;20093;-93
2022/03/21 06:59:40;;;;;;;9.43;6.45;;;8.70;99.90;;;;;;6308080;22;20328;-93
2022/03/21 07:02:06;;;;;;;10.48;6.80;;;9.10;99.90;;;;;;6307749;22;19999;-91
2022/03/21 07:04:32;;;;;;;11.40;6.65;;;9.10;99.90;;;;;;6308171;22;20007;-89
2022/03/21 07:06:58;;;;;;;9.43;6.15;;;9.10;99.90;;;;;;6308066;22;20006;-93
2022/03/21 07:09:25;;;;;;;8.65;6.47;;;9.10;99.90;;;;;;6309738;22;20067;-88
2022/03/21 07:11:51;;;;;;;11.23;6.45;;;9.00;99.90;;;;;;6309224;22;20030;-91
2022/03/21 07:14:18;;;;;;;8.57;6.22;;;9.10;99.90;;;;;;6307804;22;20068;-91
2022/03/21 07:16:44;;;;;;;8.55;6.22;;;9.10;99.90;;;;;;6307799;22;20075;-89
2022/03/21 07:19:09;;;;;;;8.38;6.53;;;9.10;99.90;;;;;;6307799;22;20059;-91
2022/03/21 07:21:35;;;;;;;9.50;6.10;;;9.10;99.90;;;;;;6307943;22;19999;-92
2022/03/21 07:24:01;;;;;;;9.25;6.20;;;9.20;99.90;;;;;;6307767;22;20007;-92
2022/03/21 07:26:26;;;;;;;10.45;6.40;;;9.20;99.90;;;;;;6307746;22;19999;-89
2022/03/21 07:28:52;;;;;;;10.95;6.43;;;9.20;99.90;;;;;;6308843;22;20056;-92
2022/03/21 07:31:17;;;;;;;7.75;6.22;;;9.30;99.90;;;;;;6307727;22;20002;-90
2022/03/21 07:33:44;;;;;;;8.48;6.22;;;;;;;;;;6308470;22;20029;-90
2022/03/21 07:36:10;;;;;;;8.48;5.82;;;;;;;;;;6307926;22;20010;-92
2022/03/21 07:38:37;;;;;;;7.72;5.70;;;9.40;99.90;;;;;;6308114;22;20010;-92
2022/03/21 07:41:07;;;;;;;9.27;5.95;;;9.50;99.90;;;;;;6307962;22;20002;-92
2022/03/21 07:43:33;;;;;;;9.05;5.90;;;9.50;99.90;;;;;;6307661;22;20042;-90
2022/03/21 07:48:42;;;;;;;8.20;5.38;;;9.70;99.90;;;;;;6335219;22;20009;-91
2022/03/21 07:51:08;;;;;;;7.13;5.50;;;9.80;99.90;;;;;;6308266;22;19999;-92
2022/03/21 07:53:34;;;;;;;6.95;5.15;;;9.80;99.90;;;;;;6308299;22;20516;-93
2022/03/21 07:56:00;;;;;;;7.22;5.20;;;9.90;99.90;;;;;;6308496;22;19999;-94
2022/03/21 07:58:29;;;;;;;13.57;5.57;;;10.00;99.90;;;;;;6308591;22;20002;-92
2022/03/21 08:00:56;;;;;;;9.57;5.63;;;10.10;99.90;;;;;;6308789;22;19999;-91
2022/03/21 08:03:22;;;;;;;6.30;5.05;;;10.20;99.90;;;;;;6307939;22;20090;-90
2022/03/21 08:05:48;;;;;;;6.63;4.70;;;10.20;99.90;;;;;;6323124;22;20318;-90
2022/03/21 08:08:15;;;;;;;6.50;4.35;;;10.30;99.90;;;;;;6331186;22;20028;-91
2022/03/21 08:10:42;;;;;;;7.22;4.70;;;10.40;99.90;;;;;;6333863;22;20010;-89
2022/03/21 08:13:08;;;;;;;5.53;4.68;;;10.50;99.90;;;;;;6321416;22;20011;-92
2022/03/21 08:15:36;;;;;;;9.70;4.88;;;10.50;99.90;;;;;;6314585;22;20500;-92
2022/03/21 08:18:06;;;;;;;5.22;4.65;;;10.70;99.90;;;;;;6310880;22;20097;-93
2022/03/21 08:20:35;;;;;;;8.50;4.63;;;10.80;99.90;;;;;;6312102;22;20385;-94
2022/03/21 08:23:03;;;;;;;7.97;4.80;;;10.80;99.90;;;;;;6311816;22;20022;-93
2022/03/21 08:25:30;;;;;;;6.55;4.47;;;10.90;99.90;;;;;;6311169;22;20007;-88
2022/03/21 08:27:55;;;;;;;8.27;4.75;;;11.00;99.90;;;;;;6311041;22;20003;-92
2022/03/21 08:30:21;;;;;;;6.55;4.95;;;11.10;99.90;;;;;;6310389;22;20002;-89
2022/03/21 08:32:48;;;;;;;8.02;4.80;;;11.20;99.90;;;;;;6309977;22;20006;-90
2022/03/21 08:35:16;;;;;;;6.90;4.72;;;11.20;99.90;;;;;;6309965;22;20002;-90
2022/03/21 08:37:42;;;;;;;7.00;4.68;;;11.40;99.90;;;;;;6310153;22;20011;-89
2022/03/21 08:40:09;;;;;;;8.45;4.53;;;11.50;99.90;;;;;;6309784;22;20030;-91
2022/03/21 08:42:34;;;;;;;7.07;4.72;;;11.50;99.90;;;;;;6310643;22;20007;-91
2022/03/21 08:45:00;;;;;;;6.85;4.72;;;11.60;99.90;;;;;;6337818;22;20003;-90
2022/03/21 08:47:26;;;;;;;7.13;4.45;;;11.70;99.90;;;;;;6311122;22;20033;-89
2022/03/21 08:49:52;;;;;;;4.93;4.18;;;11.70;99.90;;;;;;6309093;22;20018;-90
2022/03/21 08:52:20;;;;;;;5.63;4.25;;;11.90;99.90;;;;;;6309925;22;20090;-90
2022/03/21 08:54:46;;;;;;;4.95;3.95;;;12.00;99.90;;;;;;6309657;22;20431;-92
2022/03/21 08:57:12;;;;;;;4.22;3.35;;;12.10;99.90;;;;;;6310500;22;20003;-90
2022/03/21 08:59:37;;;;;;;4.65;3.67;;;12.20;99.90;;;;;;6309824;22;20009;-89
2022/03/21 09:02:08;;;;;;;6.45;4.05;;;12.30;99.90;;;;;;6310173;22;20007;-90
2022/03/21 09:04:35;;;;;;;4.55;3.60;;;12.40;99.90;;;;;;6309583;22;20006;-90
2022/03/21 09:07:02;;;;;;;8.50;3.80;;;12.50;99.90;;;;;;6310101;22;20006;-90
2022/03/21 09:09:28;;;;;;;5.75;3.63;;;12.60;99.90;;;;;;6311289;22;20041;-90
2022/03/21 09:11:54;;;;;;;5.60;3.50;;;12.60;99.90;;;;;;6310219;22;19998;-88
2022/03/21 09:14:20;;;;;;;5.10;3.58;;;12.70;99.90;;;;;;6311543;22;20011;-91
2022/03/21 09:16:46;;;;;;;6.40;3.70;;;12.70;99.90;;;;;;6311058;22;20007;-91
2022/03/21 09:19:12;;;;;;;4.85;3.42;;;12.80;99.90;;;;;;6311549;22;20413;-93
2022/03/21 09:21:37;;;;;;;8.10;3.50;;;12.90;99.90;;;;;;6310412;22;20060;-89
2022/03/21 09:24:04;;;;;;;8.10;3.55;;;13.00;99.90;;;;;;6311764;22;20006;-89
2022/03/21 09:26:30;;;;;;;4.32;3.50;;;13.10;99.90;;;;;;6311584;22;19998;-91
2022/03/21 09:29:05;;;;;;;5.38;3.55;;;13.10;99.90;;;;;;6312075;22;20355;-94
2022/03/21 09:31:31;;;;;;;5.03;3.50;;;13.20;99.90;;;;;;6313655;22;20002;-90
2022/03/21 09:33:57;;;;;;;5.72;3.78;;;13.20;99.90;;;;;;6312851;22;20339;-92
2022/03/21 09:36:24;;;;;;;4.97;3.50;;;13.20;99.90;;;;;;6315370;22;20094;-89
2022/03/21 09:38:50;;;;;;;4.72;3.47;;;13.30;99.90;;;;;;6310916;22;20010;-89
2022/03/21 09:41:22;;;;;;;4.55;3.53;;;13.40;99.90;;;;;;6311427;22;20002;-92
2022/03/21 09:43:53;;;;;;;6.38;4.00;;;13.40;99.90;;;;;;6309740;22;20014;-90
2022/03/21 09:46:20;;;;;;;7.22;3.88;;;13.40;99.90;;;;;;6338691;22;19995;-91
2022/03/21 09:48:50;;;;;;;4.85;3.63;;;13.50;99.90;;;;;;6312217;22;20013;-91
2022/03/21 09:51:42;;;;;;;5.75;3.85;;;13.60;99.90;;;;;;6311106;22;20075;-90
2022/03/21 09:54:09;;;;;;;6.22;4.18;;;13.60;99.90;;;;;;6303946;22;20003;-90
2022/03/21 09:56:35;;;;;;;7.75;3.95;;;13.70;99.90;;;;;;6312163;22;20469;-90
2022/03/21 09:59:02;;;;;;;4.95;4.00;;;13.70;99.90;;;;;;6312642;22;20003;-90
2022/03/21 10:01:30;;;;;;;6.40;4.50;;;13.70;99.90;;;;;;6287056;22;20071;-90
2022/03/21 10:03:56;;;;;;;;;;;13.80;99.90;;;;;;6312709;22;20025;-89
2022/03/21 10:06:27;;;;;;;6.03;3.85;;;13.90;99.90;;;;;;6311155;22;19963;-90
2022/03/21 10:09:03;;;;;;;7.22;3.20;;;14.00;99.90;;;;;;6311083;22;20450;-89
2022/03/21 10:11:29;;;;;;;6.85;3.33;;;14.00;99.90;;;;;;6339324;22;20442;-91
2022/03/21 10:13:54;;;;;;;6.20;3.30;;;14.10;99.90;;;;;;6311009;22;20274;-90
2022/03/21 10:16:21;;;;;;;3.83;3.10;;;14.10;99.90;;;;;;6311405;22;20089;-90
2022/03/21 10:18:53;;;;;;;8.20;3.50;;;14.10;99.90;;;;;;6310600;22;19998;-94
2022/03/21 10:21:25;;;;;;;6.00;3.70;;;14.10;99.90;;;;;;6315452;22;20003;-92
2022/03/21 10:24:10;;;;;;;4.95;3.40;;;14.20;99.90;;;;;;6340420;22;20037;-90
2022/03/21 10:26:40;;;;;;;4.90;3.22;;;14.30;99.90;;;;;;6314988;22;20006;-89
2022/03/21 10:29:10;;;;;;;4.22;3.40;;;14.20;99.90;;;;;;6314569;22;20018;-89
2022/03/21 10:31:51;;;;;;;10.75;3.55;;;14.30;99.90;;;;;;6314089;22;19998;-93
2022/03/21 10:34:23;;;;;;;5.35;3.42;;;14.40;99.90;;;;;;6316940;22;20508;-94
2022/03/21 10:37:10;;;;;;;4.43;3.00;;;14.40;99.90;;;;;;6315058;22;20002;-90
2022/03/21 10:39:40;;;;;;;3.92;2.97;;;14.50;99.90;;;;;;6327006;22;19998;-89
2022/03/21 10:42:09;;;;;;;5.35;3.38;;;14.50;99.90;;;;;;6337667;22;20021;-89
2022/03/21 10:44:37;;;;;;;4.63;3.30;;;14.60;99.90;;;;;;6338757;22;19991;-92
2022/03/21 10:47:07;;;;;;;5.55;3.20;;;14.60;99.90;;;;;;6326941;22;20014;-89
2022/03/21 10:49:33;;;;;;;4.82;3.08;;;14.70;99.90;;;;;;6319521;22;20090;-89
2022/03/21 10:52:00;;;;;;;4.97;2.95;;;14.80;99.90;;;;;;6316203;22;20002;-90
2022/03/21 10:54:35;;;;;;;5.72;3.13;;;14.90;99.90;;;;;;6314444;22;20086;-90
2022/03/21 10:57:00;;;;;;;4.90;3.50;;;14.90;99.90;;;;;;6313584;22;19995;-92
2022/03/21 10:59:26;;;;;;;5.43;3.42;;;14.90;99.90;;;;;;6314638;22;20022;-90
2022/03/21 11:02:17;;;;;;;4.65;3.42;;;14.90;99.90;;;;;;6311868;22;20093;-90
2022/03/21 11:04:44;;;;;;;4.65;3.20;;;14.90;99.90;;;;;;6310011;22;20025;-89
2022/03/21 11:07:13;;;;;;;6.47;3.27;;;14.90;99.90;;;;;;6309992;22;20010;-90
2022/03/21 11:09:42;;;;;;;4.15;3.10;;;15.00;99.90;;;;;;6309684;22;20006;-90
2022/03/21 11:12:09;;;;;;;5.32;3.30;;;15.10;99.90;;;;;;6310526;22;20003;-90
2022/03/21 11:14:38;;;;;;;6.55;3.38;;;15.20;99.90;;;;;;6310946;22;20011;-89
2022/03/21 11:17:05;;;;;;;4.10;3.45;;;15.30;99.90;;;;;;6311251;22;20005;-90
2022/03/21 11:19:32;;;;;;;5.97;3.50;;;15.20;99.90;;;;;;6309825;22;20010;-88
2022/03/21 11:22:00;;;;;;;3.30;2.80;;;15.20;99.90;;;;;;6311692;22;20351;-89
2022/03/21 11:24:29;;;;;;;;;;;15.20;99.90;;;;;;6310398;22;20011;-90
2022/03/21 11:27:04;;;;;;;5.35;3.40;;;15.30;99.90;;;;;;6310851;22;20215;-90
2022/03/21 11:29:45;;;;;;;5.20;3.13;;;15.40;99.90;;;;;;6310226;22;20007;-89
2022/03/21 11:32:24;;;;;;;4.78;3.15;;;15.40;99.90;;;;;;6309891;22;20003;-91
2022/03/21 11:34:57;;;;;;;5.47;3.20;;;15.40;99.90;;;;;;6311984;22;20007;-90
2022/03/21 11:37:25;;;;;;;3.67;2.92;;;15.40;99.90;;;;;;6310267;22;20426;-90
2022/03/21 11:40:23;;;;;;;3.95;2.95;;;15.40;99.90;;;;;;6336572;22;20478;-91
2022/03/21 11:42:48;;;;;;;3.95;2.80;;;15.40;99.90;;;;;;6309369;22;20010;-91
2022/03/21 11:45:32;;;;;;;6.00;3.00;;;15.40;99.90;;;;;;6313078;22;20010;-91
2022/03/21 11:48:16;;;;;;;3.50;3.10;;;15.40;99.90;;;;;;6311807;22;20002;-92
2022/03/21 11:50:42;;;;;;;7.40;3.25;;;15.40;99.90;;;;;;6341818;22;20073;-90
2022/03/21 11:53:13;;;;;;;3.58;3.08;;;15.40;99.90;;;;;;6312944;22;20009;-92
2022/03/21 11:55:46;;;;;;;6.90;3.42;;;15.50;99.90;;;;;;6312613;22;20024;-91
2022/03/21 11:58:36;;;;;;;5.50;3.20;;;15.40;99.90;;;;;;6312741;22;20073;-88
2022/03/21 12:01:06;;;;;;;6.30;3.00;;;15.40;99.90;;;;;;6312019;22;20411;-90
2022/03/21 12:03:33;;;;;;;6.80;3.30;;;15.40;99.90;;;;;;6311800;22;20034;-89
2022/03/21 12:06:23;;;;;;;5.30;3.22;;;15.40;99.90;;;;;;6312493;22;20035;-94
2022/03/21 12:08:53;;;;;;;6.13;3.30;;;15.40;99.90;;;;;;6313824;22;20098;-91
2022/03/21 12:11:40;;;;;;;6.40;2.90;;;15.50;99.90;;;;;;6313212;22;20003;-89
2022/03/21 12:14:36;;;;;;;2.88;2.60;;;15.50;99.90;;;;;;6314724;22;20010;-90
2022/03/21 12:17:01;;;;;;;4.18;2.83;;;15.50;99.90;;;;;;6311110;22;20002;-90
2022/03/21 12:19:46;;;;;;;5.70;2.90;;;15.50;99.90;;;;;;6312157;22;20029;-89
2022/03/21 12:22:30;;;;;;;3.67;2.47;;;15.40;99.90;;;;;;6312249;22;19999;-88
2022/03/21 12:25:13;;;;;;;7.10;2.63;;;15.50;99.90;;;;;;6312650;22;20005;-90
2022/03/21 12:27:45;;;;;;;3.80;2.75;;;15.50;99.90;;;;;;6312578;22;20377;-89
2022/03/21 12:30:20;;;;;;;6.75;2.85;;;15.60;99.90;;;;;;6313103;22;19999;-90
2022/03/21 12:32:57;;;;;;;5.55;2.67;;;15.60;99.90;;;;;;6311611;22;20077;-91
2022/03/21 12:35:32;;;;;;;6.32;2.63;;;15.60;99.90;;;;;;6311673;22;20093;-91
2022/03/21 12:38:03;;;;;;;4.72;2.90;;;15.60;99.90;;;;;;6311511;22;20009;-90
2022/03/21 12:40:29;;;;;;;5.85;2.58;;;15.70;99.90;;;;;;6313413;22;20500;-91
2022/03/21 12:42:59;;;;;;;5.10;2.75;;;15.70;99.90;;;;;;6311199;22;20011;-90
2022/03/21 12:45:25;;;;;;;6.63;2.70;;;15.80;99.90;;;;;;6285476;22;20002;-89
2022/03/21 12:47:52;;;;;;;9.20;2.50;;;15.80;99.90;;;;;;6312159;22;20013;-92
2022/03/21 12:50:23;;;;;;;6.55;2.95;;;15.80;99.90;;;;;;6313720;22;20026;-91
2022/03/21 12:52:57;;;;;;;5.82;2.63;;;15.80;99.90;;;;;;6312944;22;20010;-93
2022/03/21 12:55:23;;;;;;;4.50;2.60;;;15.90;99.90;;;;;;6313906;22;20006;-91
2022/03/21 12:58:00;;;;;;;4.15;2.83;;;15.90;99.90;;;;;;6313053;22;20059;-90
2022/03/21 13:00:31;;;;;;;7.03;2.50;;;15.90;99.90;;;;;;6312506;22;20443;-90
2022/03/21 13:03:02;;;;;;;4.97;2.60;;;15.90;99.90;;;;;;6312670;22;20014;-91
2022/03/21 13:11:03;;;;;;;5.10;2.63;;;16.00;99.90;;;;;;6316606;22;20351;-91
2022/03/21 13:13:42;;;;;;;6.18;2.70;;;16.10;99.90;;;;;;6324672;22;20006;-89
2022/03/21 13:16:11;;;;;;;6.80;2.88;;;16.20;99.90;;;;;;6359695;22;19995;-90
2022/03/21 13:18:38;;;;;;;4.15;2.70;;;16.20;99.90;;;;;;6336041;22;20014;-89
2022/03/21 13:21:06;;;;;;;5.97;2.80;;;16.20;99.90;;;;;;6317746;22;20003;-89